sensor_id;sensor_type;location;lat;lon;timestamp;P1;durP1;ratioP1;P2;durP2;ratioP2
19492;SDS011;9887;54.366;10.958;2023-11-19T00:00:22;10.52;;;5.72;;
19492;SDS011;9887;54.366;10.958;2023-11-19T00:02:50;11.43;;;5.07;;
19492;SDS011;9887;54.366;10.958;2023-11-19T00:05:19;9.48;;;5.40;;
19492;SDS011;9887;54.366;10.958;2023-11-19T00:07:47;8.32;;;5.22;;
19492;SDS011;9887;54.366;10.958;2023-11-19T00:10:15;8.93;;;4.70;;
19492;SDS011;9887;54.366;10.958;2023-11-19T00:12:47;8.73;;;4.70;;
19492;SDS011;9887;54.366;10.958;2023-11-19T00:15:16;8.95;;;4.20;;
19492;SDS011;9887;54.366;10.958;2023-11-19T00:17:47;8.05;;;4.45;;
19492;SDS011;9887;54.366;10.958;2023-11-19T00:20:17;10.32;;;4.78;;
19492;SDS011;9887;54.366;10.958;2023-11-19T00:22:47;6.75;;;3.75;;
19492;SDS011;9887;54.366;10.958;2023-11-19T00:25:18;7.80;;;4.07;;
19492;SDS011;9887;54.366;10.958;2023-11-19T00:27:47;6.25;;;3.78;;
19492;SDS011;9887;54.366;10.958;2023-11-19T00:30:17;5.95;;;3.65;;
19492;SDS011;9887;54.366;10.958;2023-11-19T00:32:47;6.88;;;4.35;;
19492;SDS011;9887;54.366;10.958;2023-11-19T00:35:15;6.15;;;4.18;;
19492;SDS011;9887;54.366;10.958;2023-11-19T00:37:43;6.93;;;4.10;;
19492;SDS011;9887;54.366;10.958;2023-11-19T00:40:12;8.00;;;4.20;;
19492;SDS011;9887;54.366;10.958;2023-11-19T00:42:42;7.53;;;3.40;;
19492;SDS011;9887;54.366;10.958;2023-11-19T00:45:10;5.93;;;3.78;;
19492;SDS011;9887;54.366;10.958;2023-11-19T00:47:39;7.00;;;4.00;;
19492;SDS011;9887;54.366;10.958;2023-11-19T00:50:09;7.03;;;4.03;;
19492;SDS011;9887;54.366;10.958;2023-11-19T00:52:39;6.25;;;4.00;;
19492;SDS011;9887;54.366;10.958;2023-11-19T00:55:07;6.20;;;4.13;;
19492;SDS011;9887;54.366;10.958;2023-11-19T00:57:35;10.48;;;4.35;;
19492;SDS011;9887;54.366;10.958;2023-11-19T01:00:03;6.50;;;4.38;;
19492;SDS011;9887;54.366;10.958;2023-11-19T01:02:36;6.55;;;4.07;;
19492;SDS011;9887;54.366;10.958;2023-11-19T01:05:04;7.82;;;4.30;;
19492;SDS011;9887;54.366;10.958;2023-11-19T01:07:36;7.10;;;4.28;;
19492;SDS011;9887;54.366;10.958;2023-11-19T01:10:06;9.07;;;4.35;;
19492;SDS011;9887;54.366;10.958;2023-11-19T01:12:35;7.70;;;4.47;;
19492;SDS011;9887;54.366;10.958;2023-11-19T01:15:04;6.90;;;4.38;;
19492;SDS011;9887;54.366;10.958;2023-11-19T01:17:33;5.95;;;4.35;;
19492;SDS011;9887;54.366;10.958;2023-11-19T01:20:01;7.00;;;4.72;;
19492;SDS011;9887;54.366;10.958;2023-11-19T01:22:32;8.05;;;4.50;;
19492;SDS011;9887;54.366;10.958;2023-11-19T01:25:01;6.88;;;4.50;;
19492;SDS011;9887;54.366;10.958;2023-11-19T01:27:31;6.82;;;4.10;;
19492;SDS011;9887;54.366;10.958;2023-11-19T01:30:01;7.95;;;4.45;;
19492;SDS011;9887;54.366;10.958;2023-11-19T01:32:30;6.85;;;4.70;;
19492;SDS011;9887;54.366;10.958;2023-11-19T01:34:57;6.70;;;4.15;;
19492;SDS011;9887;54.366;10.958;2023-11-19T01:37:26;7.80;;;4.20;;
19492;SDS011;9887;54.366;10.958;2023-11-19T01:39:53;6.93;;;4.22;;
19492;SDS011;9887;54.366;10.958;2023-11-19T01:42:26;7.45;;;4.70;;
19492;SDS011;9887;54.366;10.958;2023-11-19T01:44:57;6.50;;;3.97;;
19492;SDS011;9887;54.366;10.958;2023-11-19T01:47:26;7.07;;;4.07;;
19492;SDS011;9887;54.366;10.958;2023-11-19T01:49:57;7.75;;;3.97;;
19492;SDS011;9887;54.366;10.958;2023-11-19T01:52:26;7.70;;;3.67;;
19492;SDS011;9887;54.366;10.958;2023-11-19T01:54:54;5.85;;;3.72;;
19492;SDS011;9887;54.366;10.958;2023-11-19T01:57:22;6.00;;;3.65;;
19492;SDS011;9887;54.366;10.958;2023-11-19T01:59:52;6.47;;;3.55;;
19492;SDS011;9887;54.366;10.958;2023-11-19T02:02:21;5.72;;;3.70;;
19492;SDS011;9887;54.366;10.958;2023-11-19T02:04:49;6.25;;;3.40;;
19492;SDS011;9887;54.366;10.958;2023-11-19T02:07:19;5.22;;;3.53;;
19492;SDS011;9887;54.366;10.958;2023-11-19T02:09:47;5.60;;;3.42;;
19492;SDS011;9887;54.366;10.958;2023-11-19T02:12:16;5.38;;;3.67;;
19492;SDS011;9887;54.366;10.958;2023-11-19T02:14:44;7.53;;;3.95;;
19492;SDS011;9887;54.366;10.958;2023-11-19T02:17:26;7.10;;;3.50;;
19492;SDS011;9887;54.366;10.958;2023-11-19T02:19:54;6.88;;;3.60;;
19492;SDS011;9887;54.366;10.958;2023-11-19T02:22:22;5.93;;;3.35;;
19492;SDS011;9887;54.366;10.958;2023-11-19T02:24:51;6.53;;;3.70;;
19492;SDS011;9887;54.366;10.958;2023-11-19T02:27:25;7.05;;;3.80;;
19492;SDS011;9887;54.366;10.958;2023-11-19T02:29:59;5.28;;;3.45;;
19492;SDS011;9887;54.366;10.958;2023-11-19T02:32:28;5.45;;;3.42;;
19492;SDS011;9887;54.366;10.958;2023-11-19T02:34:57;6.28;;;3.50;;
19492;SDS011;9887;54.366;10.958;2023-11-19T02:37:33;5.72;;;3.35;;
19492;SDS011;9887;54.366;10.958;2023-11-19T02:40:02;5.57;;;3.40;;
19492;SDS011;9887;54.366;10.958;2023-11-19T02:42:32;6.30;;;3.28;;
19492;SDS011;9887;54.366;10.958;2023-11-19T02:45:01;4.90;;;3.13;;
19492;SDS011;9887;54.366;10.958;2023-11-19T02:47:32;5.40;;;3.13;;
19492;SDS011;9887;54.366;10.958;2023-11-19T02:50:00;5.97;;;3.08;;
19492;SDS011;9887;54.366;10.958;2023-11-19T02:52:29;5.13;;;3.22;;
19492;SDS011;9887;54.366;10.958;2023-11-19T02:55:01;5.25;;;2.90;;
19492;SDS011;9887;54.366;10.958;2023-11-19T02:57:30;5.32;;;3.35;;
19492;SDS011;9887;54.366;10.958;2023-11-19T02:59:58;4.13;;;2.92;;
19492;SDS011;9887;54.366;10.958;2023-11-19T03:02:27;4.65;;;3.13;;
19492;SDS011;9887;54.366;10.958;2023-11-19T03:05:00;4.65;;;2.97;;
19492;SDS011;9887;54.366;10.958;2023-11-19T03:07:31;5.78;;;3.38;;
19492;SDS011;9887;54.366;10.958;2023-11-19T03:09:58;6.78;;;3.25;;
19492;SDS011;9887;54.366;10.958;2023-11-19T03:12:26;4.65;;;3.10;;
19492;SDS011;9887;54.366;10.958;2023-11-19T03:14:54;4.30;;;2.80;;
19492;SDS011;9887;54.366;10.958;2023-11-19T03:17:22;5.72;;;3.00;;
19492;SDS011;9887;54.366;10.958;2023-11-19T03:19:53;4.53;;;2.78;;
19492;SDS011;9887;54.366;10.958;2023-11-19T03:22:20;5.60;;;3.20;;
19492;SDS011;9887;54.366;10.958;2023-11-19T03:24:50;5.38;;;2.72;;
19492;SDS011;9887;54.366;10.958;2023-11-19T03:27:19;5.63;;;2.92;;
19492;SDS011;9887;54.366;10.958;2023-11-19T03:29:46;4.18;;;2.67;;
19492;SDS011;9887;54.366;10.958;2023-11-19T03:32:14;4.32;;;2.20;;
19492;SDS011;9887;54.366;10.958;2023-11-19T03:34:43;4.18;;;2.47;;
19492;SDS011;9887;54.366;10.958;2023-11-19T03:37:13;4.40;;;2.60;;
19492;SDS011;9887;54.366;10.958;2023-11-19T03:39:42;3.83;;;2.20;;
19492;SDS011;9887;54.366;10.958;2023-11-19T03:42:10;3.28;;;2.28;;
19492;SDS011;9887;54.366;10.958;2023-11-19T03:44:39;3.65;;;2.10;;
19492;SDS011;9887;54.366;10.958;2023-11-19T03:47:07;3.45;;;1.98;;
19492;SDS011;9887;54.366;10.958;2023-11-19T03:49:35;3.63;;;1.75;;
19492;SDS011;9887;54.366;10.958;2023-11-19T03:52:03;3.00;;;1.90;;
19492;SDS011;9887;54.366;10.958;2023-11-19T03:54:33;4.20;;;1.75;;
19492;SDS011;9887;54.366;10.958;2023-11-19T03:57:01;3.05;;;1.80;;
19492;SDS011;9887;54.366;10.958;2023-11-19T03:59:30;3.58;;;1.60;;
19492;SDS011;9887;54.366;10.958;2023-11-19T04:01:59;2.47;;;1.38;;
19492;SDS011;9887;54.366;10.958;2023-11-19T04:04:29;4.38;;;1.52;;
19492;SDS011;9887;54.366;10.958;2023-11-19T04:06:57;3.20;;;1.40;;
19492;SDS011;9887;54.366;10.958;2023-11-19T04:09:27;3.55;;;1.70;;
19492;SDS011;9887;54.366;10.958;2023-11-19T04:11:56;3.47;;;1.40;;
19492;SDS011;9887;54.366;10.958;2023-11-19T04:14:24;4.70;;;1.40;;
19492;SDS011;9887;54.366;10.958;2023-11-19T04:16:52;2.28;;;1.23;;
19492;SDS011;9887;54.366;10.958;2023-11-19T04:19:20;1.85;;;1.00;;
19492;SDS011;9887;54.366;10.958;2023-11-19T04:21:49;3.08;;;1.50;;
19492;SDS011;9887;54.366;10.958;2023-11-19T04:24:18;3.00;;;1.27;;
19492;SDS011;9887;54.366;10.958;2023-11-19T04:26:46;2.90;;;1.38;;
19492;SDS011;9887;54.366;10.958;2023-11-19T04:29:15;4.15;;;1.40;;
19492;SDS011;9887;54.366;10.958;2023-11-19T04:31:44;5.53;;;1.33;;
19492;SDS011;9887;54.366;10.958;2023-11-19T04:34:13;3.38;;;1.17;;
19492;SDS011;9887;54.366;10.958;2023-11-19T04:36:42;1.55;;;0.88;;
19492;SDS011;9887;54.366;10.958;2023-11-19T04:39:10;3.10;;;1.20;;
19492;SDS011;9887;54.366;10.958;2023-11-19T04:41:45;4.18;;;1.52;;
19492;SDS011;9887;54.366;10.958;2023-11-19T04:44:15;2.95;;;1.10;;
19492;SDS011;9887;54.366;10.958;2023-11-19T04:46:43;2.03;;;0.80;;
19492;SDS011;9887;54.366;10.958;2023-11-19T04:49:12;1.85;;;1.10;;
19492;SDS011;9887;54.366;10.958;2023-11-19T04:51:41;2.97;;;1.10;;
19492;SDS011;9887;54.366;10.958;2023-11-19T04:54:10;3.38;;;1.17;;
19492;SDS011;9887;54.366;10.958;2023-11-19T04:56:38;2.15;;;1.15;;
19492;SDS011;9887;54.366;10.958;2023-11-19T04:59:06;2.70;;;1.08;;
19492;SDS011;9887;54.366;10.958;2023-11-19T05:01:36;4.18;;;1.23;;
19492;SDS011;9887;54.366;10.958;2023-11-19T05:04:05;1.67;;;0.98;;
19492;SDS011;9887;54.366;10.958;2023-11-19T05:06:35;2.20;;;0.80;;
19492;SDS011;9887;54.366;10.958;2023-11-19T05:09:04;1.30;;;1.10;;
19492;SDS011;9887;54.366;10.958;2023-11-19T05:11:33;2.50;;;0.90;;
19492;SDS011;9887;54.366;10.958;2023-11-19T05:14:02;1.75;;;0.90;;
19492;SDS011;9887;54.366;10.958;2023-11-19T05:16:31;3.70;;;1.00;;
19492;SDS011;9887;54.366;10.958;2023-11-19T05:19:00;1.55;;;1.00;;
19492;SDS011;9887;54.366;10.958;2023-11-19T05:21:28;2.17;;;1.10;;
19492;SDS011;9887;54.366;10.958;2023-11-19T05:23:56;2.03;;;0.90;;
19492;SDS011;9887;54.366;10.958;2023-11-19T05:26:24;1.40;;;1.10;;
19492;SDS011;9887;54.366;10.958;2023-11-19T05:28:52;1.00;;;0.90;;
19492;SDS011;9887;54.366;10.958;2023-11-19T05:31:20;2.35;;;1.05;;
19492;SDS011;9887;54.366;10.958;2023-11-19T05:33:48;2.55;;;1.33;;
19492;SDS011;9887;54.366;10.958;2023-11-19T05:36:17;3.83;;;1.30;;
19492;SDS011;9887;54.366;10.958;2023-11-19T05:38:45;2.17;;;1.20;;
19492;SDS011;9887;54.366;10.958;2023-11-19T05:41:13;2.42;;;0.90;;
19492;SDS011;9887;54.366;10.958;2023-11-19T05:43:41;3.05;;;1.10;;
19492;SDS011;9887;54.366;10.958;2023-11-19T05:46:09;4.20;;;1.13;;
19492;SDS011;9887;54.366;10.958;2023-11-19T05:48:42;2.95;;;1.10;;
19492;SDS011;9887;54.366;10.958;2023-11-19T05:51:11;4.13;;;1.00;;
19492;SDS011;9887;54.366;10.958;2023-11-19T05:53:41;1.38;;;0.90;;
19492;SDS011;9887;54.366;10.958;2023-11-19T05:56:09;1.35;;;0.90;;
19492;SDS011;9887;54.366;10.958;2023-11-19T05:58:37;2.10;;;0.90;;
19492;SDS011;9887;54.366;10.958;2023-11-19T06:01:06;2.15;;;0.90;;
19492;SDS011;9887;54.366;10.958;2023-11-19T06:03:35;2.75;;;1.00;;
19492;SDS011;9887;54.366;10.958;2023-11-19T06:06:04;4.18;;;1.05;;
19492;SDS011;9887;54.366;10.958;2023-11-19T06:08:32;1.73;;;0.80;;
19492;SDS011;9887;54.366;10.958;2023-11-19T06:11:01;2.55;;;0.80;;
19492;SDS011;9887;54.366;10.958;2023-11-19T06:13:29;1.17;;;0.70;;
19492;SDS011;9887;54.366;10.958;2023-11-19T06:15:58;4.75;;;0.85;;
19492;SDS011;9887;54.366;10.958;2023-11-19T06:18:26;1.20;;;0.70;;
19492;SDS011;9887;54.366;10.958;2023-11-19T06:20:54;1.48;;;0.70;;
19492;SDS011;9887;54.366;10.958;2023-11-19T06:23:22;2.05;;;0.82;;
19492;SDS011;9887;54.366;10.958;2023-11-19T06:25:49;0.93;;;0.57;;
19492;SDS011;9887;54.366;10.958;2023-11-19T06:28:18;1.52;;;0.70;;
19492;SDS011;9887;54.366;10.958;2023-11-19T06:30:47;1.17;;;0.70;;
19492;SDS011;9887;54.366;10.958;2023-11-19T06:33:15;1.58;;;0.60;;
19492;SDS011;9887;54.366;10.958;2023-11-19T06:35:43;2.42;;;0.80;;
19492;SDS011;9887;54.366;10.958;2023-11-19T06:38:11;1.25;;;0.63;;
19492;SDS011;9887;54.366;10.958;2023-11-19T06:40:39;0.80;;;0.70;;
19492;SDS011;9887;54.366;10.958;2023-11-19T06:43:07;1.73;;;0.60;;
19492;SDS011;9887;54.366;10.958;2023-11-19T06:45:37;1.20;;;0.70;;
19492;SDS011;9887;54.366;10.958;2023-11-19T06:48:05;0.88;;;0.70;;
19492;SDS011;9887;54.366;10.958;2023-11-19T06:50:34;0.65;;;0.60;;
19492;SDS011;9887;54.366;10.958;2023-11-19T06:53:02;0.57;;;0.50;;
19492;SDS011;9887;54.366;10.958;2023-11-19T06:55:31;1.10;;;0.75;;
19492;SDS011;9887;54.366;10.958;2023-11-19T06:57:59;2.75;;;0.70;;
19492;SDS011;9887;54.366;10.958;2023-11-19T07:00:28;0.90;;;0.65;;
19492;SDS011;9887;54.366;10.958;2023-11-19T07:03:01;1.00;;;0.70;;
19492;SDS011;9887;54.366;10.958;2023-11-19T07:05:30;1.17;;;0.85;;
19492;SDS011;9887;54.366;10.958;2023-11-19T07:07:58;2.75;;;0.90;;
19492;SDS011;9887;54.366;10.958;2023-11-19T07:10:26;1.35;;;0.90;;
19492;SDS011;9887;54.366;10.958;2023-11-19T07:12:54;1.73;;;0.90;;
19492;SDS011;9887;54.366;10.958;2023-11-19T07:15:22;2.08;;;0.80;;
19492;SDS011;9887;54.366;10.958;2023-11-19T07:17:50;1.13;;;0.90;;
19492;SDS011;9887;54.366;10.958;2023-11-19T07:20:22;1.95;;;1.13;;
19492;SDS011;9887;54.366;10.958;2023-11-19T07:22:50;1.30;;;1.00;;
19492;SDS011;9887;54.366;10.958;2023-11-19T07:25:21;2.92;;;1.30;;
19492;SDS011;9887;54.366;10.958;2023-11-19T07:27:51;1.90;;;1.10;;
19492;SDS011;9887;54.366;10.958;2023-11-19T07:30:19;1.23;;;0.95;;
19492;SDS011;9887;54.366;10.958;2023-11-19T07:32:47;1.73;;;1.10;;
19492;SDS011;9887;54.366;10.958;2023-11-19T07:35:15;1.17;;;0.95;;
19492;SDS011;9887;54.366;10.958;2023-11-19T07:37:46;3.67;;;1.40;;
19492;SDS011;9887;54.366;10.958;2023-11-19T07:40:16;1.40;;;1.20;;
19492;SDS011;9887;54.366;10.958;2023-11-19T07:42:45;2.15;;;1.40;;
19492;SDS011;9887;54.366;10.958;2023-11-19T07:45:13;2.65;;;1.50;;
19492;SDS011;9887;54.366;10.958;2023-11-19T07:47:41;1.80;;;1.35;;
19492;SDS011;9887;54.366;10.958;2023-11-19T07:50:11;2.47;;;1.50;;
19492;SDS011;9887;54.366;10.958;2023-11-19T07:52:40;2.75;;;1.40;;
19492;SDS011;9887;54.366;10.958;2023-11-19T07:55:09;3.80;;;1.70;;
19492;SDS011;9887;54.366;10.958;2023-11-19T07:57:38;3.58;;;2.03;;
19492;SDS011;9887;54.366;10.958;2023-11-19T08:00:06;3.65;;;1.95;;
19492;SDS011;9887;54.366;10.958;2023-11-19T08:02:38;3.53;;;1.90;;
19492;SDS011;9887;54.366;10.958;2023-11-19T08:05:07;6.85;;;2.33;;
19492;SDS011;9887;54.366;10.958;2023-11-19T08:07:36;4.65;;;2.08;;
19492;SDS011;9887;54.366;10.958;2023-11-19T08:10:04;6.55;;;2.38;;
19492;SDS011;9887;54.366;10.958;2023-11-19T08:12:37;4.70;;;2.30;;
19492;SDS011;9887;54.366;10.958;2023-11-19T08:15:05;3.85;;;2.40;;
19492;SDS011;9887;54.366;10.958;2023-11-19T08:17:34;5.15;;;2.75;;
19492;SDS011;9887;54.366;10.958;2023-11-19T08:20:03;4.50;;;2.50;;
19492;SDS011;9887;54.366;10.958;2023-11-19T08:22:36;5.68;;;3.03;;
19492;SDS011;9887;54.366;10.958;2023-11-19T08:25:05;6.45;;;2.85;;
19492;SDS011;9887;54.366;10.958;2023-11-19T08:27:33;6.45;;;2.65;;
19492;SDS011;9887;54.366;10.958;2023-11-19T08:30:02;5.95;;;2.70;;
19492;SDS011;9887;54.366;10.958;2023-11-19T08:32:32;5.47;;;3.10;;
19492;SDS011;9887;54.366;10.958;2023-11-19T08:35:01;4.65;;;2.63;;
19492;SDS011;9887;54.366;10.958;2023-11-19T08:37:30;3.75;;;2.63;;
19492;SDS011;9887;54.366;10.958;2023-11-19T08:39:58;4.03;;;2.97;;
19492;SDS011;9887;54.366;10.958;2023-11-19T08:42:28;4.63;;;3.00;;
19492;SDS011;9887;54.366;10.958;2023-11-19T08:44:56;5.75;;;3.03;;
19492;SDS011;9887;54.366;10.958;2023-11-19T08:47:25;4.90;;;3.20;;
19492;SDS011;9887;54.366;10.958;2023-11-19T08:49:53;5.78;;;2.83;;
19492;SDS011;9887;54.366;10.958;2023-11-19T08:52:24;5.18;;;2.97;;
19492;SDS011;9887;54.366;10.958;2023-11-19T08:54:52;4.43;;;2.75;;
19492;SDS011;9887;54.366;10.958;2023-11-19T08:57:20;5.03;;;3.10;;
19492;SDS011;9887;54.366;10.958;2023-11-19T08:59:48;6.07;;;3.30;;
19492;SDS011;9887;54.366;10.958;2023-11-19T09:02:16;5.25;;;2.67;;
19492;SDS011;9887;54.366;10.958;2023-11-19T09:04:46;7.10;;;3.63;;
19492;SDS011;9887;54.366;10.958;2023-11-19T09:07:17;6.03;;;3.00;;
19492;SDS011;9887;54.366;10.958;2023-11-19T09:09:45;4.90;;;3.15;;
19492;SDS011;9887;54.366;10.958;2023-11-19T09:12:13;6.53;;;3.05;;
19492;SDS011;9887;54.366;10.958;2023-11-19T09:14:41;4.18;;;2.97;;
19492;SDS011;9887;54.366;10.958;2023-11-19T09:17:09;5.60;;;3.53;;
19492;SDS011;9887;54.366;10.958;2023-11-19T09:19:37;5.90;;;3.00;;
19492;SDS011;9887;54.366;10.958;2023-11-19T09:22:06;5.63;;;2.83;;
19492;SDS011;9887;54.366;10.958;2023-11-19T09:24:34;8.25;;;3.28;;
19492;SDS011;9887;54.366;10.958;2023-11-19T09:27:02;6.57;;;2.85;;
19492;SDS011;9887;54.366;10.958;2023-11-19T09:29:31;6.63;;;3.30;;
19492;SDS011;9887;54.366;10.958;2023-11-19T09:31:59;5.57;;;2.70;;
19492;SDS011;9887;54.366;10.958;2023-11-19T09:34:29;8.45;;;3.50;;
19492;SDS011;9887;54.366;10.958;2023-11-19T09:36:58;10.93;;;3.05;;
19492;SDS011;9887;54.366;10.958;2023-11-19T09:39:27;8.73;;;2.97;;
19492;SDS011;9887;54.366;10.958;2023-11-19T09:41:55;7.55;;;3.10;;
19492;SDS011;9887;54.366;10.958;2023-11-19T09:44:24;11.43;;;2.97;;
19492;SDS011;9887;54.366;10.958;2023-11-19T09:46:54;11.85;;;3.20;;
19492;SDS011;9887;54.366;10.958;2023-11-19T09:49:23;18.88;;;3.80;;
19492;SDS011;9887;54.366;10.958;2023-11-19T09:51:57;15.57;;;3.20;;
19492;SDS011;9887;54.366;10.958;2023-11-19T09:54:25;17.83;;;3.50;;
19492;SDS011;9887;54.366;10.958;2023-11-19T09:56:54;13.90;;;3.25;;
19492;SDS011;9887;54.366;10.958;2023-11-19T09:59:26;18.25;;;3.15;;
19492;SDS011;9887;54.366;10.958;2023-11-19T10:01:55;11.27;;;3.58;;
19492;SDS011;9887;54.366;10.958;2023-11-19T10:04:24;21.88;;;3.78;;
19492;SDS011;9887;54.366;10.958;2023-11-19T10:06:56;15.07;;;3.25;;
19492;SDS011;9887;54.366;10.958;2023-11-19T10:09:24;20.70;;;3.90;;
19492;SDS011;9887;54.366;10.958;2023-11-19T10:11:54;23.05;;;3.85;;
19492;SDS011;9887;54.366;10.958;2023-11-19T10:14:22;18.33;;;4.00;;
19492;SDS011;9887;54.366;10.958;2023-11-19T10:16:50;26.50;;;3.83;;
19492;SDS011;9887;54.366;10.958;2023-11-19T10:19:19;23.90;;;4.13;;
19492;SDS011;9887;54.366;10.958;2023-11-19T10:21:47;27.65;;;5.65;;
19492;SDS011;9887;54.366;10.958;2023-11-19T10:24:15;27.33;;;5.15;;
19492;SDS011;9887;54.366;10.958;2023-11-19T10:26:46;23.85;;;4.30;;
19492;SDS011;9887;54.366;10.958;2023-11-19T10:29:15;23.13;;;4.15;;
19492;SDS011;9887;54.366;10.958;2023-11-19T10:31:48;27.20;;;5.13;;
19492;SDS011;9887;54.366;10.958;2023-11-19T10:34:43;25.13;;;4.50;;
19492;SDS011;9887;54.366;10.958;2023-11-19T10:37:18;24.77;;;4.82;;
19492;SDS011;9887;54.366;10.958;2023-11-19T10:39:55;30.27;;;5.15;;
19492;SDS011;9887;54.366;10.958;2023-11-19T10:42:23;32.42;;;5.03;;
19492;SDS011;9887;54.366;10.958;2023-11-19T10:44:53;34.78;;;4.95;;
19492;SDS011;9887;54.366;10.958;2023-11-19T10:47:21;33.50;;;5.18;;
19492;SDS011;9887;54.366;10.958;2023-11-19T10:49:53;28.70;;;5.55;;
19492;SDS011;9887;54.366;10.958;2023-11-19T10:52:22;31.63;;;4.45;;
19492;SDS011;9887;54.366;10.958;2023-11-19T10:54:54;37.83;;;5.07;;
19492;SDS011;9887;54.366;10.958;2023-11-19T10:57:28;35.55;;;5.25;;
19492;SDS011;9887;54.366;10.958;2023-11-19T11:00:02;26.20;;;5.28;;
19492;SDS011;9887;54.366;10.958;2023-11-19T11:02:37;34.10;;;5.57;;
19492;SDS011;9887;54.366;10.958;2023-11-19T11:05:11;30.33;;;5.25;;
19492;SDS011;9887;54.366;10.958;2023-11-19T11:07:40;30.50;;;4.90;;
19492;SDS011;9887;54.366;10.958;2023-11-19T11:10:11;30.65;;;4.97;;
19492;SDS011;9887;54.366;10.958;2023-11-19T11:12:42;33.63;;;5.10;;
19492;SDS011;9887;54.366;10.958;2023-11-19T11:15:13;32.85;;;5.18;;
19492;SDS011;9887;54.366;10.958;2023-11-19T11:17:42;26.92;;;5.07;;
19492;SDS011;9887;54.366;10.958;2023-11-19T11:20:12;26.50;;;4.55;;
19492;SDS011;9887;54.366;10.958;2023-11-19T11:22:42;25.90;;;4.40;;
19492;SDS011;9887;54.366;10.958;2023-11-19T11:25:23;19.48;;;4.70;;
19492;SDS011;9887;54.366;10.958;2023-11-19T11:28:15;19.20;;;4.25;;
19492;SDS011;9887;54.366;10.958;2023-11-19T11:30:53;22.00;;;4.72;;
19492;SDS011;9887;54.366;10.958;2023-11-19T11:33:35;17.25;;;3.78;;
19492;SDS011;9887;54.366;10.958;2023-11-19T11:36:30;21.38;;;3.90;;
19492;SDS011;9887;54.366;10.958;2023-11-19T11:39:05;25.20;;;4.63;;
19492;SDS011;9887;54.366;10.958;2023-11-19T11:41:35;22.67;;;4.32;;
19492;SDS011;9887;54.366;10.958;2023-11-19T11:44:03;21.70;;;3.88;;
19492;SDS011;9887;54.366;10.958;2023-11-19T11:49:24;27.67;;;4.10;;
19492;SDS011;9887;54.366;10.958;2023-11-19T11:51:59;23.20;;;4.18;;
19492;SDS011;9887;54.366;10.958;2023-11-19T11:54:29;22.73;;;4.13;;
19492;SDS011;9887;54.366;10.958;2023-11-19T11:57:02;26.17;;;4.90;;
19492;SDS011;9887;54.366;10.958;2023-11-19T11:59:37;28.13;;;4.57;;
19492;SDS011;9887;54.366;10.958;2023-11-19T12:02:12;21.00;;;3.85;;
19492;SDS011;9887;54.366;10.958;2023-11-19T12:04:43;26.73;;;3.90;;
19492;SDS011;9887;54.366;10.958;2023-11-19T12:07:16;24.65;;;4.40;;
19492;SDS011;9887;54.366;10.958;2023-11-19T12:09:47;22.92;;;4.72;;
19492;SDS011;9887;54.366;10.958;2023-11-19T12:12:22;20.92;;;4.45;;
19492;SDS011;9887;54.366;10.958;2023-11-19T12:14:59;21.52;;;3.88;;
19492;SDS011;9887;54.366;10.958;2023-11-19T12:17:46;20.30;;;4.40;;
19492;SDS011;9887;54.366;10.958;2023-11-19T12:20:18;20.30;;;4.13;;
19492;SDS011;9887;54.366;10.958;2023-11-19T12:22:51;28.00;;;4.60;;
19492;SDS011;9887;54.366;10.958;2023-11-19T12:25:20;21.17;;;4.35;;
19492;SDS011;9887;54.366;10.958;2023-11-19T12:27:49;22.95;;;5.72;;
19492;SDS011;9887;54.366;10.958;2023-11-19T12:30:21;27.10;;;4.95;;
19492;SDS011;9887;54.366;10.958;2023-11-19T12:32:52;22.67;;;4.82;;
19492;SDS011;9887;54.366;10.958;2023-11-19T12:35:21;30.20;;;4.88;;
19492;SDS011;9887;54.366;10.958;2023-11-19T12:37:50;26.98;;;4.63;;
19492;SDS011;9887;54.366;10.958;2023-11-19T12:40:21;31.00;;;5.78;;
19492;SDS011;9887;54.366;10.958;2023-11-19T12:42:51;28.25;;;5.07;;
19492;SDS011;9887;54.366;10.958;2023-11-19T12:45:21;28.17;;;5.82;;
19492;SDS011;9887;54.366;10.958;2023-11-19T12:47:50;21.95;;;4.70;;
19492;SDS011;9887;54.366;10.958;2023-11-19T12:53:19;28.48;;;5.80;;
19492;SDS011;9887;54.366;10.958;2023-11-19T12:55:47;25.73;;;5.00;;
19492;SDS011;9887;54.366;10.958;2023-11-19T12:58:28;32.30;;;5.22;;
19492;SDS011;9887;54.366;10.958;2023-11-19T13:00:59;33.30;;;5.47;;
19492;SDS011;9887;54.366;10.958;2023-11-19T13:03:31;23.85;;;5.10;;
19492;SDS011;9887;54.366;10.958;2023-11-19T13:06:03;27.23;;;4.97;;
19492;SDS011;9887;54.366;10.958;2023-11-19T13:08:37;25.05;;;5.30;;
19492;SDS011;9887;54.366;10.958;2023-11-19T13:11:05;27.70;;;5.07;;
19492;SDS011;9887;54.366;10.958;2023-11-19T13:16:21;29.02;;;4.75;;
19492;SDS011;9887;54.366;10.958;2023-11-19T13:18:50;30.10;;;5.70;;
19492;SDS011;9887;54.366;10.958;2023-11-19T13:21:18;28.00;;;5.07;;
19492;SDS011;9887;54.366;10.958;2023-11-19T13:23:46;21.50;;;4.40;;
19492;SDS011;9887;54.366;10.958;2023-11-19T13:26:14;23.17;;;4.53;;
19492;SDS011;9887;54.366;10.958;2023-11-19T13:28:42;21.20;;;4.53;;
19492;SDS011;9887;54.366;10.958;2023-11-19T13:31:10;24.10;;;4.82;;
19492;SDS011;9887;54.366;10.958;2023-11-19T13:33:39;23.85;;;4.18;;
19492;SDS011;9887;54.366;10.958;2023-11-19T13:36:08;27.55;;;5.35;;
19492;SDS011;9887;54.366;10.958;2023-11-19T13:38:41;22.77;;;4.60;;
19492;SDS011;9887;54.366;10.958;2023-11-19T13:41:10;23.13;;;4.45;;
19492;SDS011;9887;54.366;10.958;2023-11-19T13:43:39;21.42;;;4.93;;
19492;SDS011;9887;54.366;10.958;2023-11-19T13:46:07;17.73;;;4.22;;
19492;SDS011;9887;54.366;10.958;2023-11-19T13:48:36;22.80;;;4.63;;
19492;SDS011;9887;54.366;10.958;2023-11-19T13:51:04;24.17;;;4.07;;
19492;SDS011;9887;54.366;10.958;2023-11-19T13:53:34;17.50;;;3.55;;
19492;SDS011;9887;54.366;10.958;2023-11-19T13:56:06;20.05;;;3.60;;
19492;SDS011;9887;54.366;10.958;2023-11-19T13:58:34;14.63;;;3.13;;
19492;SDS011;9887;54.366;10.958;2023-11-19T14:01:03;15.07;;;3.22;;
19492;SDS011;9887;54.366;10.958;2023-11-19T14:03:32;14.05;;;2.90;;
19492;SDS011;9887;54.366;10.958;2023-11-19T14:06:00;21.38;;;3.28;;
19492;SDS011;9887;54.366;10.958;2023-11-19T14:08:29;14.57;;;3.42;;
19492;SDS011;9887;54.366;10.958;2023-11-19T14:10:58;18.35;;;3.15;;
19492;SDS011;9887;54.366;10.958;2023-11-19T14:13:26;17.27;;;3.10;;
19492;SDS011;9887;54.366;10.958;2023-11-19T14:15:54;12.25;;;2.45;;
19492;SDS011;9887;54.366;10.958;2023-11-19T14:18:22;12.35;;;2.95;;
19492;SDS011;9887;54.366;10.958;2023-11-19T14:26:36;18.02;;;3.33;;
19492;SDS011;9887;54.366;10.958;2023-11-19T14:29:04;15.60;;;2.67;;
19492;SDS011;9887;54.366;10.958;2023-11-19T14:31:32;16.70;;;2.90;;
19492;SDS011;9887;54.366;10.958;2023-11-19T14:34:00;16.70;;;2.92;;
19492;SDS011;9887;54.366;10.958;2023-11-19T14:36:28;15.50;;;3.42;;
19492;SDS011;9887;54.366;10.958;2023-11-19T14:38:56;15.20;;;3.03;;
19492;SDS011;9887;54.366;10.958;2023-11-19T14:41:25;13.68;;;2.60;;
19492;SDS011;9887;54.366;10.958;2023-11-19T14:43:54;15.63;;;3.00;;
19492;SDS011;9887;54.366;10.958;2023-11-19T14:46:21;14.32;;;2.80;;
19492;SDS011;9887;54.366;10.958;2023-11-19T14:48:49;12.90;;;2.72;;
19492;SDS011;9887;54.366;10.958;2023-11-19T14:51:18;15.18;;;2.83;;
19492;SDS011;9887;54.366;10.958;2023-11-19T14:53:46;13.82;;;3.00;;
19492;SDS011;9887;54.366;10.958;2023-11-19T14:56:14;12.90;;;3.13;;
19492;SDS011;9887;54.366;10.958;2023-11-19T14:58:42;16.75;;;3.20;;
19492;SDS011;9887;54.366;10.958;2023-11-19T15:01:13;14.23;;;3.00;;
19492;SDS011;9887;54.366;10.958;2023-11-19T15:03:43;18.48;;;3.28;;
19492;SDS011;9887;54.366;10.958;2023-11-19T15:06:14;16.35;;;3.10;;
19492;SDS011;9887;54.366;10.958;2023-11-19T15:08:43;13.57;;;3.22;;
19492;SDS011;9887;54.366;10.958;2023-11-19T15:11:12;16.83;;;3.42;;